sensor_id;sensor_type;location;lat;lon;timestamp;temperature;humidity
25250;DHT22;13201;51.148;13.738;2023-02-05T00:02:11;0.10;99.90
25250;DHT22;13201;51.148;13.738;2023-02-05T00:04:38;0.00;99.90
25250;DHT22;13201;51.148;13.738;2023-02-05T00:07:04;0.00;99.90
25250;DHT22;13201;51.148;13.738;2023-02-05T00:09:30;0.20;99.90
25250;DHT22;13201;51.148;13.738;2023-02-05T00:11:57;-0.10;99.90
25250;DHT22;13201;51.148;13.738;2023-02-05T00:14:23;-0.20;99.90
25250;DHT22;13201;51.148;13.738;2023-02-05T00:16:50;-0.30;99.90
25250;DHT22;13201;51.148;13.738;2023-02-05T00:19:15;-0.40;99.90
25250;DHT22;13201;51.148;13.738;2023-02-05T00:21:41;-0.50;99.90
25250;DHT22;13201;51.148;13.738;2023-02-05T00:24:07;-0.60;99.90
25250;DHT22;13201;51.148;13.738;2023-02-05T00:26:33;-0.50;99.90
25250;DHT22;13201;51.148;13.738;2023-02-05T00:28:58;-0.40;99.90
25250;DHT22;13201;51.148;13.738;2023-02-05T00:31:24;-0.40;99.90
25250;DHT22;13201;51.148;13.738;2023-02-05T00:33:51;-0.40;99.90
25250;DHT22;13201;51.148;13.738;2023-02-05T00:36:18;-0.40;99.90
25250;DHT22;13201;51.148;13.738;2023-02-05T00:38:45;-0.40;99.90
25250;DHT22;13201;51.148;13.738;2023-02-05T00:41:11;-0.40;99.90
25250;DHT22;13201;51.148;13.738;2023-02-05T00:43:38;-0.40;99.90
25250;DHT22;13201;51.148;13.738;2023-02-05T00:46:04;-0.40;99.90
25250;DHT22;13201;51.148;13.738;2023-02-05T00:48:30;-0.60;99.90
25250;DHT22;13201;51.148;13.738;2023-02-05T00:50:55;-0.70;99.90
25250;DHT22;13201;51.148;13.738;2023-02-05T00:53:22;-0.70;99.90
25250;DHT22;13201;51.148;13.738;2023-02-05T00:55:49;-0.70;99.90
25250;DHT22;13201;51.148;13.738;2023-02-05T00:58:15;-0.70;99.90
25250;DHT22;13201;51.148;13.738;2023-02-05T01:00:41;-0.80;99.90
25250;DHT22;13201;51.148;13.738;2023-02-05T01:03:07;-0.80;99.90
25250;DHT22;13201;51.148;13.738;2023-02-05T01:31:04;-2.20;99.90
25250;DHT22;13201;51.148;13.738;2023-02-05T01:33:29;-2.40;99.90
25250;DHT22;13201;51.148;13.738;2023-02-05T01:35:55;-2.40;99.90
25250;DHT22;13201;51.148;13.738;2023-02-05T01:38:21;-2.30;99.90
25250;DHT22;13201;51.148;13.738;2023-02-05T01:40:46;-2.10;99.90
25250;DHT22;13201;51.148;13.738;2023-02-05T01:43:14;-2.00;99.90
25250;DHT22;13201;51.148;13.738;2023-02-05T01:45:53;-1.90;99.90
25250;DHT22;13201;51.148;13.738;2023-02-05T01:48:29;-1.90;99.90
25250;DHT22;13201;51.148;13.738;2023-02-05T01:51:00;-1.80;99.90
25250;DHT22;13201;51.148;13.738;2023-02-05T01:53:29;-1.70;99.90
25250;DHT22;13201;51.148;13.738;2023-02-05T01:55:57;-1.70;99.90
25250;DHT22;13201;51.148;13.738;2023-02-05T01:58:25;-1.80;99.90
25250;DHT22;13201;51.148;13.738;2023-02-05T02:00:52;-1.80;99.90
25250;DHT22;13201;51.148;13.738;2023-02-05T02:03:18;-1.70;99.90
25250;DHT22;13201;51.148;13.738;2023-02-05T02:05:44;-1.80;99.90
25250;DHT22;13201;51.148;13.738;2023-02-05T02:08:13;-1.90;99.90
25250;DHT22;13201;51.148;13.738;2023-02-05T02:10:41;-2.00;99.90
25250;DHT22;13201;51.148;13.738;2023-02-05T02:13:09;-2.10;99.90
25250;DHT22;13201;51.148;13.738;2023-02-05T02:15:35;-2.00;99.90
25250;DHT22;13201;51.148;13.738;2023-02-05T02:18:02;-1.90;99.90
25250;DHT22;13201;51.148;13.738;2023-02-05T02:32:03;-2.00;99.90
25250;DHT22;13201;51.148;13.738;2023-02-05T02:34:49;-1.90;99.90
25250;DHT22;13201;51.148;13.738;2023-02-05T02:37:24;-2.10;99.90
25250;DHT22;13201;51.148;13.738;2023-02-05T02:40:00;-2.10;99.90
25250;DHT22;13201;51.148;13.738;2023-02-05T02:42:35;-1.90;99.90
25250;DHT22;13201;51.148;13.738;2023-02-05T02:45:07;-2.10;99.90
25250;DHT22;13201;51.148;13.738;2023-02-05T02:47:37;-2.30;99.90
25250;DHT22;13201;51.148;13.738;2023-02-05T02:50:16;-2.30;99.90
25250;DHT22;13201;51.148;13.738;2023-02-05T02:52:45;-2.20;99.90
25250;DHT22;13201;51.148;13.738;2023-02-05T02:55:13;-2.20;99.90
25250;DHT22;13201;51.148;13.738;2023-02-05T02:57:43;-2.10;99.90
25250;DHT22;13201;51.148;13.738;2023-02-05T03:00:12;-2.10;99.90
25250;DHT22;13201;51.148;13.738;2023-02-05T03:02:42;-2.60;99.90
25250;DHT22;13201;51.148;13.738;2023-02-05T03:05:19;-2.40;99.90
25250;DHT22;13201;51.148;13.738;2023-02-05T03:07:54;-2.30;99.90
25250;DHT22;13201;51.148;13.738;2023-02-05T03:10:36;-2.30;99.90
25250;DHT22;13201;51.148;13.738;2023-02-05T03:13:06;-2.20;99.90
25250;DHT22;13201;51.148;13.738;2023-02-05T03:15:32;-2.20;99.90
25250;DHT22;13201;51.148;13.738;2023-02-05T03:17:57;-2.20;99.90
25250;DHT22;13201;51.148;13.738;2023-02-05T03:20:27;-2.20;99.90
25250;DHT22;13201;51.148;13.738;2023-02-05T03:22:54;-2.30;99.90
25250;DHT22;13201;51.148;13.738;2023-02-05T03:25:22;-2.20;99.90
25250;DHT22;13201;51.148;13.738;2023-02-05T03:27:51;-2.30;99.90
25250;DHT22;13201;51.148;13.738;2023-02-05T03:30:18;-2.30;99.90
25250;DHT22;13201;51.148;13.738;2023-02-05T03:35:44;-2.30;99.90
25250;DHT22;13201;51.148;13.738;2023-02-05T03:40:56;-2.50;99.90
25250;DHT22;13201;51.148;13.738;2023-02-05T03:43:38;-2.40;99.90
25250;DHT22;13201;51.148;13.738;2023-02-05T03:54:14;-2.70;99.90
25250;DHT22;13201;51.148;13.738;2023-02-05T03:57:27;-2.50;99.90
25250;DHT22;13201;51.148;13.738;2023-02-05T03:59:33;-2.50;99.90
25250;DHT22;13201;51.148;13.738;2023-02-05T04:02:00;-2.40;99.90
25250;DHT22;13201;51.148;13.738;2023-02-05T04:04:29;-2.50;99.90
25250;DHT22;13201;51.148;13.738;2023-02-05T04:06:55;-2.60;99.90
25250;DHT22;13201;51.148;13.738;2023-02-05T04:09:21;-2.60;99.90
25250;DHT22;13201;51.148;13.738;2023-02-05T04:11:46;-2.60;99.90
25250;DHT22;13201;51.148;13.738;2023-02-05T04:14:12;-2.60;99.90
25250;DHT22;13201;51.148;13.738;2023-02-05T04:16:37;-3.00;99.90
25250;DHT22;13201;51.148;13.738;2023-02-05T04:19:03;-2.90;99.90
25250;DHT22;13201;51.148;13.738;2023-02-05T04:21:29;-2.90;99.90
25250;DHT22;13201;51.148;13.738;2023-02-05T04:23:55;-3.00;99.90
25250;DHT22;13201;51.148;13.738;2023-02-05T04:26:20;-3.00;99.90
25250;DHT22;13201;51.148;13.738;2023-02-05T04:28:46;-2.90;99.90
25250;DHT22;13201;51.148;13.738;2023-02-05T04:31:12;-2.70;99.90
25250;DHT22;13201;51.148;13.738;2023-02-05T04:33:39;-2.70;99.90
25250;DHT22;13201;51.148;13.738;2023-02-05T04:36:05;-2.80;99.90
25250;DHT22;13201;51.148;13.738;2023-02-05T04:38:32;-2.80;99.90
25250;DHT22;13201;51.148;13.738;2023-02-05T04:40:57;-2.80;99.90
25250;DHT22;13201;51.148;13.738;2023-02-05T04:43:23;-2.80;99.90
25250;DHT22;13201;51.148;13.738;2023-02-05T04:45:49;-2.80;99.90
25250;DHT22;13201;51.148;13.738;2023-02-05T04:48:15;-2.80;99.90
25250;DHT22;13201;51.148;13.738;2023-02-05T04:50:41;-2.70;99.90
25250;DHT22;13201;51.148;13.738;2023-02-05T04:53:07;-2.80;99.90
25250;DHT22;13201;51.148;13.738;2023-02-05T04:55:33;-2.80;99.90
25250;DHT22;13201;51.148;13.738;2023-02-05T04:57:58;-2.90;99.90
25250;DHT22;13201;51.148;13.738;2023-02-05T05:00:24;-2.90;99.90
25250;DHT22;13201;51.148;13.738;2023-02-05T05:02:51;-3.00;99.90
25250;DHT22;13201;51.148;13.738;2023-02-05T05:05:17;-3.00;99.90
25250;DHT22;13201;51.148;13.738;2023-02-05T05:07:43;-3.00;99.90
25250;DHT22;13201;51.148;13.738;2023-02-05T05:10:09;-3.00;99.90
25250;DHT22;13201;51.148;13.738;2023-02-05T05:12:36;-3.00;99.90
25250;DHT22;13201;51.148;13.738;2023-02-05T05:15:03;-3.00;99.90
25250;DHT22;13201;51.148;13.738;2023-02-05T05:17:29;-2.90;99.90
25250;DHT22;13201;51.148;13.738;2023-02-05T05:19:54;-2.80;99.90
25250;DHT22;13201;51.148;13.738;2023-02-05T05:22:20;-2.80;99.90
25250;DHT22;13201;51.148;13.738;2023-02-05T05:24:46;-2.90;99.90
25250;DHT22;13201;51.148;13.738;2023-02-05T05:27:11;-2.90;99.90
25250;DHT22;13201;51.148;13.738;2023-02-05T05:29:37;-2.80;99.90
25250;DHT22;13201;51.148;13.738;2023-02-05T05:32:03;-2.80;99.90
25250;DHT22;13201;51.148;13.738;2023-02-05T05:34:28;-2.80;99.90
25250;DHT22;13201;51.148;13.738;2023-02-05T05:36:54;-2.70;99.90
25250;DHT22;13201;51.148;13.738;2023-02-05T05:39:20;-2.80;99.90
25250;DHT22;13201;51.148;13.738;2023-02-05T05:42:04;-2.70;99.90
25250;DHT22;13201;51.148;13.738;2023-02-05T05:44:49;-2.90;99.90
25250;DHT22;13201;51.148;13.738;2023-02-05T05:47:17;-2.90;99.90
25250;DHT22;13201;51.148;13.738;2023-02-05T05:49:43;-2.80;99.90
25250;DHT22;13201;51.148;13.738;2023-02-05T05:52:09;-2.60;99.90
25250;DHT22;13201;51.148;13.738;2023-02-05T05:54:35;-3.00;99.90
25250;DHT22;13201;51.148;13.738;2023-02-05T05:57:00;-3.00;99.90
25250;DHT22;13201;51.148;13.738;2023-02-05T05:59:26;-3.10;99.90
25250;DHT22;13201;51.148;13.738;2023-02-05T06:01:52;-3.10;99.90
25250;DHT22;13201;51.148;13.738;2023-02-05T06:04:17;-3.00;99.90
25250;DHT22;13201;51.148;13.738;2023-02-05T06:06:43;-2.90;99.90
25250;DHT22;13201;51.148;13.738;2023-02-05T06:09:08;-2.80;99.90
25250;DHT22;13201;51.148;13.738;2023-02-05T06:11:34;-2.70;99.90
25250;DHT22;13201;51.148;13.738;2023-02-05T06:14:00;-2.70;99.90
25250;DHT22;13201;51.148;13.738;2023-02-05T06:16:26;-2.90;99.90
25250;DHT22;13201;51.148;13.738;2023-02-05T06:18:52;-3.20;99.90
25250;DHT22;13201;51.148;13.738;2023-02-05T06:21:19;-3.30;99.90
25250;DHT22;13201;51.148;13.738;2023-02-05T06:23:44;-3.20;99.90
25250;DHT22;13201;51.148;13.738;2023-02-05T06:26:10;-3.00;99.90
25250;DHT22;13201;51.148;13.738;2023-02-05T06:28:36;-2.80;99.90
25250;DHT22;13201;51.148;13.738;2023-02-05T06:31:02;-2.70;99.90
25250;DHT22;13201;51.148;13.738;2023-02-05T06:33:27;-2.60;99.90
25250;DHT22;13201;51.148;13.738;2023-02-05T06:35:53;-2.80;99.90
25250;DHT22;13201;51.148;13.738;2023-02-05T06:38:19;-2.80;99.90
25250;DHT22;13201;51.148;13.738;2023-02-05T06:40:46;-2.80;99.90
25250;DHT22;13201;51.148;13.738;2023-02-05T06:43:12;-2.80;99.90
25250;DHT22;13201;51.148;13.738;2023-02-05T06:45:37;-2.70;99.90
25250;DHT22;13201;51.148;13.738;2023-02-05T06:48:03;-2.50;99.90
25250;DHT22;13201;51.148;13.738;2023-02-05T06:50:29;-2.50;99.90
25250;DHT22;13201;51.148;13.738;2023-02-05T06:52:55;-2.50;99.90
25250;DHT22;13201;51.148;13.738;2023-02-05T06:55:20;-2.40;99.90
25250;DHT22;13201;51.148;13.738;2023-02-05T06:57:46;-2.40;99.90
25250;DHT22;13201;51.148;13.738;2023-02-05T07:00:12;-2.60;99.90
25250;DHT22;13201;51.148;13.738;2023-02-05T07:02:38;-2.50;99.90
25250;DHT22;13201;51.148;13.738;2023-02-05T07:05:04;-2.60;99.90
25250;DHT22;13201;51.148;13.738;2023-02-05T07:07:30;-2.80;99.90
25250;DHT22;13201;51.148;13.738;2023-02-05T07:09:57;-2.80;99.90
25250;DHT22;13201;51.148;13.738;2023-02-05T07:12:23;-2.70;99.90
25250;DHT22;13201;51.148;13.738;2023-02-05T07:14:49;-2.60;99.90
25250;DHT22;13201;51.148;13.738;2023-02-05T07:17:15;-2.50;99.90
25250;DHT22;13201;51.148;13.738;2023-02-05T07:19:40;-2.40;99.90
25250;DHT22;13201;51.148;13.738;2023-02-05T07:22:06;-2.50;99.90
25250;DHT22;13201;51.148;13.738;2023-02-05T07:24:32;-2.60;99.90
25250;DHT22;13201;51.148;13.738;2023-02-05T07:26:57;-2.50;99.90
25250;DHT22;13201;51.148;13.738;2023-02-05T07:29:23;-2.40;99.90
25250;DHT22;13201;51.148;13.738;2023-02-05T07:31:49;-2.30;99.90
25250;DHT22;13201;51.148;13.738;2023-02-05T07:34:15;-2.20;99.90
25250;DHT22;13201;51.148;13.738;2023-02-05T07:36:41;-2.10;99.90
25250;DHT22;13201;51.148;13.738;2023-02-05T07:39:06;-2.00;99.90
25250;DHT22;13201;51.148;13.738;2023-02-05T07:41:33;-1.90;99.90
25250;DHT22;13201;51.148;13.738;2023-02-05T07:43:59;-1.80;99.90
25250;DHT22;13201;51.148;13.738;2023-02-05T07:46:25;-1.80;99.90
25250;DHT22;13201;51.148;13.738;2023-02-05T07:48:51;-1.70;99.90
25250;DHT22;13201;51.148;13.738;2023-02-05T07:51:21;-1.60;99.90
25250;DHT22;13201;51.148;13.738;2023-02-05T07:53:47;-1.70;99.90
25250;DHT22;13201;51.148;13.738;2023-02-05T07:56:13;-1.60;99.90
25250;DHT22;13201;51.148;13.738;2023-02-05T07:58:40;-1.70;99.90
25250;DHT22;13201;51.148;13.738;2023-02-05T08:01:06;-1.60;99.90
25250;DHT22;13201;51.148;13.738;2023-02-05T08:03:32;-1.50;99.90
25250;DHT22;13201;51.148;13.738;2023-02-05T08:05:57;-1.60;99.90
25250;DHT22;13201;51.148;13.738;2023-02-05T08:08:23;-1.40;99.90
25250;DHT22;13201;51.148;13.738;2023-02-05T08:11:01;-1.40;99.90
25250;DHT22;13201;51.148;13.738;2023-02-05T08:13:27;-1.40;99.90
25250;DHT22;13201;51.148;13.738;2023-02-05T08:15:53;-1.30;99.90
25250;DHT22;13201;51.148;13.738;2023-02-05T08:18:18;-1.10;99.90
25250;DHT22;13201;51.148;13.738;2023-02-05T08:20:44;-1.10;99.90
25250;DHT22;13201;51.148;13.738;2023-02-05T08:23:10;-1.30;99.90
25250;DHT22;13201;51.148;13.738;2023-02-05T08:25:37;-1.30;99.90
25250;DHT22;13201;51.148;13.738;2023-02-05T08:28:03;-1.20;99.90
25250;DHT22;13201;51.148;13.738;2023-02-05T08:30:29;-1.00;99.90
25250;DHT22;13201;51.148;13.738;2023-02-05T08:32:54;-1.20;99.90
25250;DHT22;13201;51.148;13.738;2023-02-05T08:35:20;-1.00;99.90
25250;DHT22;13201;51.148;13.738;2023-02-05T08:37:46;-1.00;99.90
25250;DHT22;13201;51.148;13.738;2023-02-05T08:40:11;-0.90;99.90
25250;DHT22;13201;51.148;13.738;2023-02-05T08:42:37;-1.00;99.90
25250;DHT22;13201;51.148;13.738;2023-02-05T08:45:03;-0.80;99.90
25250;DHT22;13201;51.148;13.738;2023-02-05T08:47:34;-0.70;99.90
25250;DHT22;13201;51.148;13.738;2023-02-05T08:49:59;-0.70;99.90
25250;DHT22;13201;51.148;13.738;2023-02-05T08:52:25;-0.60;99.90
25250;DHT22;13201;51.148;13.738;2023-02-05T08:54:51;-0.60;99.90
25250;DHT22;13201;51.148;13.738;2023-02-05T08:57:16;-0.50;99.90
25250;DHT22;13201;51.148;13.738;2023-02-05T08:59:42;-0.60;99.90
25250;DHT22;13201;51.148;13.738;2023-02-05T09:02:14;-0.60;99.90
25250;DHT22;13201;51.148;13.738;2023-02-05T09:04:40;-0.50;99.90
25250;DHT22;13201;51.148;13.738;2023-02-05T09:07:15;-0.50;99.90
25250;DHT22;13201;51.148;13.738;2023-02-05T09:09:41;-0.60;99.90
25250;DHT22;13201;51.148;13.738;2023-02-05T09:12:07;-0.50;99.90
25250;DHT22;13201;51.148;13.738;2023-02-05T09:14:35;-0.40;99.90
25250;DHT22;13201;51.148;13.738;2023-02-05T09:17:02;-0.30;99.90
25250;DHT22;13201;51.148;13.738;2023-02-05T09:19:28;-0.20;99.90
25250;DHT22;13201;51.148;13.738;2023-02-05T09:21:56;-0.30;99.90
25250;DHT22;13201;51.148;13.738;2023-02-05T09:24:22;-0.20;99.90
25250;DHT22;13201;51.148;13.738;2023-02-05T09:26:47;-0.20;99.90
25250;DHT22;13201;51.148;13.738;2023-02-05T09:29:13;-0.30;99.90
25250;DHT22;13201;51.148;13.738;2023-02-05T09:31:40;-0.20;99.90
25250;DHT22;13201;51.148;13.738;2023-02-05T09:34:05;-0.20;99.90
25250;DHT22;13201;51.148;13.738;2023-02-05T09:36:31;-0.10;99.90
25250;DHT22;13201;51.148;13.738;2023-02-05T09:38:57;-0.10;99.90
25250;DHT22;13201;51.148;13.738;2023-02-05T09:41:27;-0.10;99.90
25250;DHT22;13201;51.148;13.738;2023-02-05T09:49:40;0.20;99.90
25250;DHT22;13201;51.148;13.738;2023-02-05T09:52:18;0.30;99.90
25250;DHT22;13201;51.148;13.738;2023-02-05T09:54:51;0.40;99.90
25250;DHT22;13201;51.148;13.738;2023-02-05T09:57:33;0.60;99.90
25250;DHT22;13201;51.148;13.738;2023-02-05T09:59:59;0.60;99.90
25250;DHT22;13201;51.148;13.738;2023-02-05T10:02:33;0.90;99.90
25250;DHT22;13201;51.148;13.738;2023-02-05T10:05:00;0.90;99.90
25250;DHT22;13201;51.148;13.738;2023-02-05T10:07:52;0.90;99.90
25250;DHT22;13201;51.148;13.738;2023-02-05T10:12:54;0.90;99.90
25250;DHT22;13201;51.148;13.738;2023-02-05T10:18:36;1.00;99.90
25250;DHT22;13201;51.148;13.738;2023-02-05T10:26:47;1.40;99.90
25250;DHT22;13201;51.148;13.738;2023-02-05T10:32:23;1.30;99.90
25250;DHT22;13201;51.148;13.738;2023-02-05T10:37:20;1.40;99.90
25250;DHT22;13201;51.148;13.738;2023-02-05T10:39:50;1.50;99.90
25250;DHT22;13201;51.148;13.738;2023-02-05T10:42:33;1.50;99.90
25250;DHT22;13201;51.148;13.738;2023-02-05T10:50:35;1.50;99.90
25250;DHT22;13201;51.148;13.738;2023-02-05T10:53:07;1.60;99.90
25250;DHT22;13201;51.148;13.738;2023-02-05T10:55:33;1.50;99.90
25250;DHT22;13201;51.148;13.738;2023-02-05T10:58:18;1.60;99.90
25250;DHT22;13201;51.148;13.738;2023-02-05T11:00:46;1.50;99.90
25250;DHT22;13201;51.148;13.738;2023-02-05T11:03:16;1.60;99.90
25250;DHT22;13201;51.148;13.738;2023-02-05T11:05:42;1.70;99.90
25250;DHT22;13201;51.148;13.738;2023-02-05T11:10:56;1.70;99.90
25250;DHT22;13201;51.148;13.738;2023-02-05T11:13:22;1.80;99.90
25250;DHT22;13201;51.148;13.738;2023-02-05T11:16:03;1.90;99.90
25250;DHT22;13201;51.148;13.738;2023-02-05T11:18:35;1.80;99.90
25250;DHT22;13201;51.148;13.738;2023-02-05T11:21:05;1.90;99.90
25250;DHT22;13201;51.148;13.738;2023-02-05T11:23:33;2.30;99.90
25250;DHT22;13201;51.148;13.738;2023-02-05T11:28:43;2.30;99.90
25250;DHT22;13201;51.148;13.738;2023-02-05T11:36:39;2.10;99.90
25250;DHT22;13201;51.148;13.738;2023-02-05T11:39:36;2.40;99.90
25250;DHT22;13201;51.148;13.738;2023-02-05T11:44:53;2.40;99.90
25250;DHT22;13201;51.148;13.738;2023-02-05T11:47:29;2.40;99.90
25250;DHT22;13201;51.148;13.738;2023-02-05T11:49:56;2.40;99.90
25250;DHT22;13201;51.148;13.738;2023-02-05T11:52:28;2.60;99.90
25250;DHT22;13201;51.148;13.738;2023-02-05T11:54:54;2.80;99.90
25250;DHT22;13201;51.148;13.738;2023-02-05T12:02:41;3.00;99.90
25250;DHT22;13201;51.148;13.738;2023-02-05T12:08:12;3.00;99.90
25250;DHT22;13201;51.148;13.738;2023-02-05T12:16:56;3.30;99.90
25250;DHT22;13201;51.148;13.738;2023-02-05T12:19:24;3.40;99.90
25250;DHT22;13201;51.148;13.738;2023-02-05T12:41:36;3.20;99.90
25250;DHT22;13201;51.148;13.738;2023-02-05T12:57:56;3.30;99.90
25250;DHT22;13201;51.148;13.738;2023-02-05T13:03:34;3.30;99.90
25250;DHT22;13201;51.148;13.738;2023-02-05T13:06:17;3.10;99.90
25250;DHT22;13201;51.148;13.738;2023-02-05T13:08:54;3.20;99.90
25250;DHT22;13201;51.148;13.738;2023-02-05T13:11:43;3.20;99.90
25250;DHT22;13201;51.148;13.738;2023-02-05T13:17:10;3.00;99.90
25250;DHT22;13201;51.148;13.738;2023-02-05T13:22:39;3.00;99.90
25250;DHT22;13201;51.148;13.738;2023-02-05T13:25:33;3.10;99.90
25250;DHT22;13201;51.148;13.738;2023-02-05T13:33:38;3.00;99.90
25250;DHT22;13201;51.148;13.738;2023-02-05T13:50:21;3.30;99.90
25250;DHT22;13201;51.148;13.738;2023-02-05T13:53:30;3.40;99.90
25250;DHT22;13201;51.148;13.738;2023-02-05T13:59:02;3.40;99.90
25250;DHT22;13201;51.148;13.738;2023-02-05T14:01:32;3.50;99.90
25250;DHT22;13201;51.148;13.738;2023-02-05T14:06:49;3.40;99.90
25250;DHT22;13201;51.148;13.738;2023-02-05T14:09:42;3.30;99.90
25250;DHT22;13201;51.148;13.738;2023-02-05T14:12:11;3.50;99.90
25250;DHT22;13201;51.148;13.738;2023-02-05T14:22:53;3.30;99.90
25250;DHT22;13201;51.148;13.738;2023-02-05T14:30:51;3.30;99.90
25250;DHT22;13201;51.148;13.738;2023-02-05T14:39:01;3.10;99.90
25250;DHT22;13201;51.148;13.738;2023-02-05T14:49:41;3.20;99.90
25250;DHT22;13201;51.148;13.738;2023-02-05T14:52:24;3.20;99.90
25250;DHT22;13201;51.148;13.738;2023-02-05T14:57:44;3.20;99.90
25250;DHT22;13201;51.148;13.738;2023-02-05T15:00:40;3.20;99.90
25250;DHT22;13201;51.148;13.738;2023-02-05T15:13:34;2.90;99.90
25250;DHT22;13201;51.148;13.738;2023-02-05T15:21:29;2.90;99.90
25250;DHT22;13201;51.148;13.738;2023-02-05T15:24:05;2.80;99.90
25250;DHT22;13201;51.148;13.738;2023-02-05T15:26:54;2.60;99.90
25250;DHT22;13201;51.148;13.738;2023-02-05T15:29:25;2.70;99.90
25250;DHT22;13201;51.148;13.738;2023-02-05T15:31:54;2.70;99.90
25250;DHT22;13201;51.148;13.738;2023-02-05T15:42:17;2.60;99.90
25250;DHT22;13201;51.148;13.738;2023-02-05T15:44:43;2.60;99.90
25250;DHT22;13201;51.148;13.738;2023-02-05T15:47:23;2.50;99.90
25250;DHT22;13201;51.148;13.738;2023-02-05T15:49:54;2.50;99.90
25250;DHT22;13201;51.148;13.738;2023-02-05T15:52:29;2.40;99.90
25250;DHT22;13201;51.148;13.738;2023-02-05T15:54:59;2.30;99.90
25250;DHT22;13201;51.148;13.738;2023-02-05T15:57:29;2.40;99.90
25250;DHT22;13201;51.148;13.738;2023-02-05T15:59:56;2.40;99.90
25250;DHT22;13201;51.148;13.738;2023-02-05T16:02:26;2.30;99.90
25250;DHT22;13201;51.148;13.738;2023-02-05T16:04:57;2.30;99.90
25250;DHT22;13201;51.148;13.738;2023-02-05T16:07:26;2.20;99.90
25250;DHT22;13201;51.148;13.738;2023-02-05T16:09:57;2.20;99.90
25250;DHT22;13201;51.148;13.738;2023-02-05T16:12:24;2.20;99.90
25250;DHT22;13201;51.148;13.738;2023-02-05T16:15:01;2.10;99.90
25250;DHT22;13201;51.148;13.738;2023-02-05T16:17:41;2.20;99.90
25250;DHT22;13201;51.148;13.738;2023-02-05T16:27:53;2.10;99.90
25250;DHT22;13201;51.148;13.738;2023-02-05T16:32:52;2.00;99.90
25250;DHT22;13201;51.148;13.738;2023-02-05T16:35:33;2.00;99.90
25250;DHT22;13201;51.148;13.738;2023-02-05T16:38:00;2.20;99.90
25250;DHT22;13201;51.148;13.738;2023-02-05T16:40:31;2.20;99.90
25250;DHT22;13201;51.148;13.738;2023-02-05T16:43:16;2.20;99.90
25250;DHT22;13201;51.148;13.738;2023-02-05T16:48:52;2.00;99.90
25250;DHT22;13201;51.148;13.738;2023-02-05T16:59:20;1.80;99.90
25250;DHT22;13201;51.148;13.738;2023-02-05T17:01:48;1.70;99.90
25250;DHT22;13201;51.148;13.738;2023-02-05T17:04:29;1.80;99.90
25250;DHT22;13201;51.148;13.738;2023-02-05T17:06:58;1.20;99.90
25250;DHT22;13201;51.148;13.738;2023-02-05T17:12:35;1.20;99.90
25250;DHT22;13201;51.148;13.738;2023-02-05T17:17:47;1.30;99.90
25250;DHT22;13201;51.148;13.738;2023-02-05T17:20:18;1.40;99.90
25250;DHT22;13201;51.148;13.738;2023-02-05T17:25:38;1.30;99.90
25250;DHT22;13201;51.148;13.738;2023-02-05T17:28:04;1.30;99.90
25250;DHT22;13201;51.148;13.738;2023-02-05T17:30:30;1.10;99.90
25250;DHT22;13201;51.148;13.738;2023-02-05T17:32:56;1.10;99.90
25250;DHT22;13201;51.148;13.738;2023-02-05T17:35:22;1.20;99.90
25250;DHT22;13201;51.148;13.738;2023-02-05T17:37:51;1.30;99.90
25250;DHT22;13201;51.148;13.738;2023-02-05T17:40:18;1.30;99.90
25250;DHT22;13201;51.148;13.738;2023-02-05T17:42:44;1.30;99.90
25250;DHT22;13201;51.148;13.738;2023-02-05T17:45:20;1.10;99.90
25250;DHT22;13201;51.148;13.738;2023-02-05T17:47:46;1.00;99.90
25250;DHT22;13201;51.148;13.738;2023-02-05T17:50:12;0.60;99.90
25250;DHT22;13201;51.148;13.738;2023-02-05T17:52:38;0.70;99.90
25250;DHT22;13201;51.148;13.738;2023-02-05T17:55:05;0.80;99.90
25250;DHT22;13201;51.148;13.738;2023-02-05T17:57:31;0.80;99.90
25250;DHT22;13201;51.148;13.738;2023-02-05T17:59:59;0.80;99.90
25250;DHT22;13201;51.148;13.738;2023-02-05T18:02:25;0.70;99.90
25250;DHT22;13201;51.148;13.738;2023-02-05T18:04:51;0.70;99.90
25250;DHT22;13201;51.148;13.738;2023-02-05T18:09:57;0.50;99.90
25250;DHT22;13201;51.148;13.738;2023-02-05T18:12:26;0.40;99.90
25250;DHT22;13201;51.148;13.738;2023-02-05T18:14:52;0.10;99.90
25250;DHT22;13201;51.148;13.738;2023-02-05T18:17:18;0.10;99.90
25250;DHT22;13201;51.148;13.738;2023-02-05T18:19:44;0.20;99.90
25250;DHT22;13201;51.148;13.738;2023-02-05T18:22:10;0.40;99.90
25250;DHT22;13201;51.148;13.738;2023-02-05T18:24:36;0.30;99.90
25250;DHT22;13201;51.148;13.738;2023-02-05T18:27:02;0.30;99.90
25250;DHT22;13201;51.148;13.738;2023-02-05T18:29:29;0.30;99.90
25250;DHT22;13201;51.148;13.738;2023-02-05T18:31:55;0.30;99.90
25250;DHT22;13201;51.148;13.738;2023-02-05T18:34:21;0.30;99.90
25250;DHT22;13201;51.148;13.738;2023-02-05T18:36:47;0.30;99.90
25250;DHT22;13201;51.148;13.738;2023-02-05T18:39:13;0.30;99.90
25250;DHT22;13201;51.148;13.738;2023-02-05T18:41:38;-0.10;99.90
25250;DHT22;13201;51.148;13.738;2023-02-05T18:44:05;-0.10;99.90
25250;DHT22;13201;51.148;13.738;2023-02-05T18:46:30;-0.10;99.90
25250;DHT22;13201;51.148;13.738;2023-02-05T18:48:56;-0.10;99.90
25250;DHT22;13201;51.148;13.738;2023-02-05T18:51:22;-0.10;99.90
25250;DHT22;13201;51.148;13.738;2023-02-05T18:53:48;-0.10;99.90
25250;DHT22;13201;51.148;13.738;2023-02-05T18:56:17;-0.10;99.90
25250;DHT22;13201;51.148;13.738;2023-02-05T18:58:48;-0.30;99.90
25250;DHT22;13201;51.148;13.738;2023-02-05T19:01:16;-0.40;99.90
25250;DHT22;13201;51.148;13.738;2023-02-05T19:03:43;-0.50;99.90
25250;DHT22;13201;51.148;13.738;2023-02-05T19:06:12;-0.40;99.90
25250;DHT22;13201;51.148;13.738;2023-02-05T19:08:38;-0.30;99.90
25250;DHT22;13201;51.148;13.738;2023-02-05T19:11:18;-0.50;99.90
25250;DHT22;13201;51.148;13.738;2023-02-05T19:13:45;-0.50;99.90
25250;DHT22;13201;51.148;13.738;2023-02-05T19:16:14;-0.60;99.90
25250;DHT22;13201;51.148;13.738;2023-02-05T19:18:42;-0.50;99.90
25250;DHT22;13201;51.148;13.738;2023-02-05T19:21:12;-0.70;99.90
25250;DHT22;13201;51.148;13.738;2023-02-05T19:23:38;-0.80;99.90
25250;DHT22;13201;51.148;13.738;2023-02-05T19:26:06;-0.90;99.90
25250;DHT22;13201;51.148;13.738;2023-02-05T19:28:33;-1.00;99.90
25250;DHT22;13201;51.148;13.738;2023-02-05T19:31:07;-1.00;99.90
25250;DHT22;13201;51.148;13.738;2023-02-05T19:33:34;-0.90;99.90
25250;DHT22;13201;51.148;13.738;2023-02-05T19:36:00;-0.80;99.90
25250;DHT22;13201;51.148;13.738;2023-02-05T19:38:27;-1.20;99.90
25250;DHT22;13201;51.148;13.738;2023-02-05T19:40:53;-1.30;99.90
25250;DHT22;13201;51.148;13.738;2023-02-05T19:43:18;-1.00;99.90
25250;DHT22;13201;51.148;13.738;2023-02-05T19:45:45;-0.80;99.90
25250;DHT22;13201;51.148;13.738;2023-02-05T19:48:12;-0.80;99.90
25250;DHT22;13201;51.148;13.738;2023-02-05T19:50:38;-0.90;99.90
25250;DHT22;13201;51.148;13.738;2023-02-05T19:53:04;-1.10;99.90